Time;durP1;ratioP1;P1;durP2;ratioP2;P2;SDS_P1;SDS_P2;PMS_P1;PMS_P2;Temp;Humidity;BMP_temperature;BMP_pressure;BME280_temperature;BME280_humidity;BME280_pressure;Samples;Min_cycle;Max_cycle;Signal;HPM_P1;HPM_P2
2021/11/01 00:00:14;;;;;;;;;;;;;;;12.68;70.39;95597.56;30001;983;1871;-56
2021/11/01 00:00:49;;;;;;;;;;;;;;;12.67;70.13;95604.16;30001;983;1875;-56
2021/11/01 00:01:21;;;;;;;;;;;;;;;12.65;70.26;95600.97;30001;983;1875;-56
2021/11/01 00:01:52;;;;;;;;;;;;;;;12.65;70.03;95606.41;30001;983;1875;-56
2021/11/01 00:02:23;;;;;;;;;;;;;;;12.65;70.40;95606.41;30001;983;1876;-57
2021/11/01 00:02:54;;;;;;;;;;;;;;;12.66;70.34;95607.22;30001;983;1876;-56
2021/11/01 00:03:25;;;;;;;;;;;;;;;12.65;70.63;95598.25;30001;983;1876;-56
2021/11/01 00:04:02;;;;;;;;;;;;;;;12.70;70.16;95594.53;30001;982;1876;-55
2021/11/01 00:04:33;;;;;;;;;;;;;;;12.70;70.29;95598.03;30001;982;1858;-56
2021/11/01 00:05:05;;;;;;;;;;;;;;;12.69;70.43;95592.94;30001;982;1872;-57
2021/11/01 00:05:35;;;;;;;;;;;;;;;12.70;70.25;95591.81;30001;982;1876;-56
2021/11/01 00:06:07;;;;;;;;;;;;;;;12.69;70.03;95601.09;30001;982;1876;-57
2021/11/01 00:06:37;;;;;;;;;;;;;;;12.68;70.35;95594.06;30001;983;1875;-56
2021/11/01 00:07:08;;;;;;;;;;;;;;;12.67;70.14;95597.91;30001;983;1875;-57
2021/11/01 00:07:39;;;;;;;;;;;;;;;12.68;70.32;95594.06;30001;983;1874;-56
2021/11/01 00:08:10;;;;;;;;;;;;;;;12.69;70.31;95592.94;30001;983;1874;-56
2021/11/01 00:08:42;;;;;;;;;;;;;;;12.69;70.30;95596.44;30001;983;1874;-58
2021/11/01 00:09:13;;;;;;;;;;;;;;;12.72;70.23;95595.78;30001;983;1876;-56
2021/11/01 00:09:44;;;;;;;;;;;;;;;12.75;70.39;95600.53;30001;983;1746;-56
2021/11/01 00:10:14;;;;;;;;;;;;;;;12.74;70.28;95592.72;30001;983;1871;-56
2021/11/01 00:10:45;;;;;;;;;;;;;;;12.73;70.29;95597.38;30001;983;1876;-56
2021/11/01 00:11:16;;;;;;;;;;;;;;;12.72;70.27;95595.78;30001;983;1876;-57
2021/11/01 00:11:48;;;;;;;;;;;;;;;12.74;70.50;95598.97;30001;982;1876;-57
2021/11/01 00:12:19;;;;;;;;;;;;;;;12.75;70.39;95584.22;30001;982;1876;-56
2021/11/01 00:12:50;;;;;;;;;;;;;;;12.77;70.51;95585.81;30001;982;1876;-55
2021/11/01 00:13:21;;;;;;;;;;;;;;;12.77;70.25;95588.53;30001;982;1876;-56
2021/11/01 00:13:52;;;;;;;;;;;;;;;12.75;70.01;95589.66;30001;982;1876;-56
2021/11/01 00:14:24;;;;;;;;;;;;;;;12.75;69.94;95594.31;30001;983;1875;-56
2021/11/01 00:14:57;;;;;;;;;;;;;;;12.74;70.05;95592.72;30001;983;1858;-57
2021/11/01 00:15:28;;;;;;;;;;;;;;;12.72;69.99;95587.63;30001;983;1871;-56
2021/11/01 00:15:59;;;;;;;;;;;;;;;12.72;70.30;95584.09;30001;983;1875;-56
2021/11/01 00:16:30;;;;;;;;;;;;;;;12.73;70.28;95586.47;30001;983;1858;-56
2021/11/01 00:17:01;;;;;;;;;;;;;;;12.72;70.23;95590.34;30001;983;1871;-56
2021/11/01 00:17:32;;;;;;;;;;;;;;;12.71;70.13;95591.47;30001;987;1876;-56
2021/11/01 00:18:03;;;;;;;;;;;;;;;12.71;70.43;95594.19;30001;983;1876;-56
2021/11/01 00:18:34;;;;;;;;;;;;;;;12.71;70.59;95596.91;30001;983;1858;-56
2021/11/01 00:19:05;;;;;;;;;;;;;;;12.72;70.24;95595.78;30001;982;1871;-56
2021/11/01 00:19:36;;;;;;;;;;;;;;;12.72;70.27;95595.78;30001;982;1876;-56
2021/11/01 00:20:08;;;;;;;;;;;;;;;12.73;70.40;95591.12;30001;982;1876;-57
2021/11/01 00:20:39;;;;;;;;;;;;;;;12.74;70.64;95588.06;30001;982;1876;-57
2021/11/01 00:21:10;;;;;;;;;;;;;;;12.75;70.69;95589.66;30001;982;1876;-55
2021/11/01 00:21:41;;;;;;;;;;;;;;;12.77;70.27;95602.13;30001;983;1875;-55
2021/11/01 00:22:11;;;;;;;;;;;;;;;12.77;70.59;95602.94;30001;983;1875;-56
2021/11/01 00:22:42;;;;;;;;;;;;;;;12.87;70.42;95596.22;30001;983;1875;-55
2021/11/01 00:23:13;;;;;;;;;;;;;;;12.90;70.24;95580.03;30001;983;1858;-56
2021/11/01 00:23:45;;;;;;;;;;;;;;;12.91;70.20;95591.72;30001;983;1853;-56
2021/11/01 00:24:16;;;;;;;;;;;;;;;12.90;70.28;95590.91;30001;983;1876;-56
2021/11/01 00:24:47;;;;;;;;;;;;;;;12.90;70.58;95592.84;30001;983;1876;-56
2021/11/01 00:25:18;;;;;;;;;;;;;;;12.93;70.71;95586.72;30001;983;1876;-55
2021/11/01 00:25:50;;;;;;;;;;;;;;;12.94;70.41;95580.13;30001;982;1858;-55
2021/11/01 00:26:21;;;;;;;;;;;;;;;12.97;70.03;95590.34;30001;982;1871;-57
2021/11/01 00:26:53;;;;;;;;;;;;;;;12.97;70.05;95591.16;30001;982;1876;-56
2021/11/01 00:27:23;;;;;;;;;;;;;;;12.96;70.14;95578.66;30002;799;1013;-56
2021/11/01 00:27:55;;;;;;;;;;;;;;;12.98;69.99;95583.78;30001;982;1876;-56
2021/11/01 00:28:27;;;;;;;;;;;;;;;12.99;69.95;95588.09;30001;982;1876;-55
2021/11/01 00:29:02;;;;;;;;;;;;;;;13.03;70.19;95581.63;30001;982;1876;-55
2021/11/01 00:29:34;;;;;;;;;;;;;;;13.05;71.00;95582.09;30001;983;1858;-57
2021/11/01 00:30:06;;;;;;;;;;;;;;;13.07;70.97;95584.47;30001;983;1871;-56
2021/11/01 00:30:37;;;;;;;;;;;;;;;13.06;70.57;95582.88;30001;983;1858;-57
2021/11/01 00:31:08;;;;;;;;;;;;;;;13.08;70.64;95575.16;30001;983;1871;-57
2021/11/01 00:31:39;;;;;;;;;;;;;;;13.11;70.93;95579.94;30001;983;1876;-56
2021/11/01 00:32:10;;;;;;;;;;;;;;;13.13;70.94;95587.75;30001;983;1862;-56
2021/11/01 00:32:42;;;;;;;;;;;;;;;13.24;71.39;95589.69;30001;983;1876;-56
2021/11/01 00:33:13;;;;;;;;;;;;;;;13.30;71.88;95582.88;30001;983;1863;-55
2021/11/01 00:33:44;;;;;;;;;;;;;;;13.30;71.63;95577.44;30001;982;1875;-60
2021/11/01 00:34:15;;;;;;;;;;;;;;;13.32;71.62;95585.28;30001;982;1880;-55
2021/11/01 00:34:46;;;;;;;;;;;;;;;13.33;71.92;95582.22;30001;982;1880;-57
2021/11/01 00:35:16;;;;;;;;;;;;;;;13.36;71.68;95583.47;30001;982;1880;-54
2021/11/01 00:35:49;;;;;;;;;;;;;;;13.37;72.21;95588.56;30001;982;1880;-56
2021/11/01 00:36:20;;;;;;;;;;;;;;;13.38;71.84;95584.72;30001;982;1880;-56
2021/11/01 00:36:53;;;;;;;;;;;;;;;13.38;71.70;95578.47;30001;983;1862;-57
2021/11/01 00:37:24;;;;;;;;;;;;;;;13.38;71.64;95590.16;30001;983;1875;-56
2021/11/01 00:37:55;;;;;;;;;;;;;;;13.43;72.00;95577.44;30001;983;1880;-56
2021/11/01 00:38:26;;;;;;;;;;;;;;;13.49;72.29;95585.03;30001;983;1880;-54
2021/11/01 00:38:56;;;;;;;;;;;;;;;13.58;72.50;95582.97;30001;983;1880;-55
2021/11/01 00:39:28;;;;;;;;;;;;;;;13.59;73.14;95572.84;30001;983;1880;-56
2021/11/01 00:40:00;;;;;;;;;;;;;;;13.60;72.36;95579.91;30001;983;1880;-57
2021/11/01 00:40:31;;;;;;;;;;;;;;;13.62;72.48;95583.88;30001;983;1880;-55
2021/11/01 00:41:02;;;;;;;;;;;;;;;13.69;72.18;95583.28;30001;982;1880;-55
2021/11/01 00:41:34;;;;;;;;;;;;;;;13.71;72.41;95575.56;30001;982;1880;-55
2021/11/01 00:42:05;;;;;;;;;;;;;;;13.73;72.06;95579.53;30001;982;1863;-55
2021/11/01 00:42:37;;;;;;;;;;;;;;;13.72;72.29;95579.87;30001;982;1876;-57
2021/11/01 00:43:08;;;;;;;;;;;;;;;13.77;72.26;95579.66;30001;982;1880;-55
2021/11/01 00:43:39;;;;;;;;;;;;;;;13.78;72.15;95573.06;30001;983;1862;-56
2021/11/01 00:44:10;;;;;;;;;;;;;;;13.78;72.19;95585.88;30001;983;1875;-56
2021/11/01 00:44:41;;;;;;;;;;;;;;;13.78;71.65;95578.50;30001;983;1880;-56
2021/11/01 00:45:15;;;;;;;;;;;;;;;13.80;73.26;95578.16;30001;983;1880;-56
2021/11/01 00:45:46;;;;;;;;;;;;;;;13.85;72.60;95584.19;30001;983;1880;-57
2021/11/01 00:46:17;;;;;;;;;;;;;;;13.85;72.19;95578.72;30001;983;1880;-56
2021/11/01 00:46:47;;;;;;;;;;;;;;;13.89;72.18;95582.31;30001;983;1862;-58
2021/11/01 00:47:18;;;;;;;;;;;;;;;13.96;72.48;95584.47;30001;983;1876;-56
2021/11/01 00:47:49;;;;;;;;;;;;;;;13.96;72.23;95579.81;30001;983;1880;-55
2021/11/01 00:48:20;;;;;;;;;;;;;;;13.95;72.08;95575.50;30001;983;1880;-55
2021/11/01 00:48:51;;;;;;;;;;;;;;;13.96;72.11;95598.09;30001;982;1881;-55
2021/11/01 00:49:22;;;;;;;;;;;;;;;14.00;72.08;95579.91;30001;982;1881;-56
2021/11/01 00:49:54;;;;;;;;;;;;;;;14.03;71.94;95581.94;30001;982;1881;-56
2021/11/01 00:50:25;;;;;;;;;;;;;;;14.05;72.35;95579.66;30001;982;1863;-56
2021/11/01 00:50:56;;;;;;;;;;;;;;;14.05;72.47;95576.94;30001;983;1875;-56
2021/11/01 00:51:27;;;;;;;;;;;;;;;14.03;71.82;95580.00;30001;983;1879;-56
2021/11/01 00:51:59;;;;;;;;;;;;;;;14.05;72.06;95580.47;30001;971;1900;-54
2021/11/01 00:52:31;;;;;;;;;;;;;;;14.11;71.96;95583.75;30001;983;1880;-55
2021/11/01 00:53:02;;;;;;;;;;;;;;;14.12;71.87;95579.87;30001;983;1862;-56
2021/11/01 00:53:35;;;;;;;;;;;;;;;14.11;71.81;95577.50;30001;983;1875;-56
2021/11/01 00:54:08;;;;;;;;;;;;;;;14.09;71.96;95575.91;30001;983;1880;-56
2021/11/01 00:54:40;;;;;;;;;;;;;;;14.08;71.75;95582.50;30001;983;1880;-57
2021/11/01 00:55:20;;;;;;;;;;;;;;;14.11;71.66;95577.50;30001;983;1880;-56
2021/11/01 00:55:52;;;;;;;;;;;;;;;14.17;71.78;95570.66;30001;983;1880;-56
2021/11/01 00:56:23;;;;;;;;;;;;;;;14.16;71.79;95574.53;30001;982;1880;-57
2021/11/01 00:56:54;;;;;;;;;;;;;;;14.18;71.46;95583.16;30001;982;1880;-56
2021/11/01 00:57:26;;;;;;;;;;;;;;;14.19;71.50;95576.56;30001;982;1880;-59
2021/11/01 00:57:58;;;;;;;;;;;;;;;14.26;71.75;95574.00;30001;982;1880;-56
2021/11/01 00:58:29;;;;;;;;;;;;;;;14.28;71.98;95577.19;30001;983;1862;-55
2021/11/01 00:59:00;;;;;;;;;;;;;;;14.28;71.62;95566.25;30001;983;1875;-56
2021/11/01 00:59:31;;;;;;;;;;;;;;;14.28;71.78;95560.81;30001;983;1880;-56
2021/11/01 01:00:03;;;;;;;;;;;;;;;14.29;71.43;95562.41;30001;983;1880;-57
2021/11/01 01:00:34;;;;;;;;;;;;;;;14.30;71.81;95558.53;30001;983;1880;-55
2021/11/01 01:01:05;;;;;;;;;;;;;;;14.29;72.01;95562.41;30001;983;1863;-58
2021/11/01 01:01:38;;;;;;;;;;;;;;;14.31;72.02;95568.28;30001;983;1876;-56
2021/11/01 01:02:11;;;;;;;;;;;;;;;14.31;71.27;95565.56;30001;983;1880;-55
2021/11/01 01:02:44;;;;;;;;;;;;;;;14.30;71.92;95563.97;30001;983;1880;-57
2021/11/01 01:03:15;;;;;;;;;;;;;;;14.30;71.60;95561.25;30001;983;1863;-56
2021/11/01 01:03:46;;;;;;;;;;;;;;;14.35;71.69;95559.06;30001;982;1876;-57
2021/11/01 01:04:17;;;;;;;;;;;;;;;14.41;71.87;95565.09;30001;982;1863;-55
2021/11/01 01:04:48;;;;;;;;;;;;;;;14.40;71.70;95558.81;30001;982;1876;-56
2021/11/01 01:05:19;;;;;;;;;;;;;;;14.42;71.64;95561.22;30001;982;1880;-56
2021/11/01 01:05:50;;;;;;;;;;;;;;;14.39;71.62;95556.44;30001;982;1880;-56
2021/11/01 01:06:21;;;;;;;;;;;;;;;14.39;71.73;95557.22;30001;983;1862;-56
2021/11/01 01:06:52;;;;;;;;;;;;;;;14.43;72.36;95557.34;30001;983;1875;-55
2021/11/01 01:07:23;;;;;;;;;;;;;;;14.44;72.04;95558.94;30001;983;1880;-55
2021/11/01 01:07:53;;;;;;;;;;;;;;;14.43;71.97;95560.09;30001;983;1880;-55
2021/11/01 01:08:24;;;;;;;;;;;;;;;14.45;72.32;95549.63;30001;983;1862;-56
2021/11/01 01:08:55;;;;;;;;;;;;;;;14.44;72.28;95553.50;30001;983;1875;-55
2021/11/01 01:09:26;;;;;;;;;;;;;;;14.42;71.92;95558.50;30001;983;1880;-56
2021/11/01 01:09:57;;;;;;;;;;;;;;;14.40;72.13;95552.56;30001;983;1880;-57
2021/11/01 01:10:28;;;;;;;;;;;;;;;14.40;72.24;95558.81;30001;983;1880;-57
2021/11/01 01:10:58;;;;;;;;;;;;;;;14.42;72.32;95555.78;30001;983;1880;-57
2021/11/01 01:11:29;;;;;;;;;;;;;;;14.43;71.94;95554.62;30001;982;1880;-55
2021/11/01 01:12:02;;;;;;;;;;;;;;;14.46;72.54;95545.75;30001;982;1881;-56
2021/11/01 01:12:33;;;;;;;;;;;;;;;14.45;71.86;95551.56;30001;982;1881;-57
2021/11/01 01:13:05;;;;;;;;;;;;;;;14.43;72.09;95554.62;30001;982;1880;-56
2021/11/01 01:13:37;;;;;;;;;;;;;;;14.40;72.17;95547.09;30001;983;1862;-57
2021/11/01 01:14:08;;;;;;;;;;;;;;;14.39;72.00;95559.16;30001;983;1875;-56
2021/11/01 01:14:44;;;;;;;;;;;;;;;14.38;71.91;95552.91;30001;983;1880;-55
2021/11/01 01:15:19;;;;;;;;;;;;;;;14.45;72.59;95549.63;30001;983;1880;-55
2021/11/01 01:16:04;;;;;;;;;;;;;;;14.45;72.71;95557.81;30001;983;1880;-56
2021/11/01 01:16:42;;;;;;;;;;;;;;;14.44;72.15;95555.44;30001;983;1880;-56
2021/11/01 01:17:13;;;;;;;;;;;;;;;14.42;71.92;95550.31;30001;983;1880;-57
2021/11/01 01:17:45;;;;;;;;;;;;;;;14.45;72.40;95560.53;30001;982;1880;-56
2021/11/01 01:18:21;;;;;;;;;;;;;;;14.50;72.43;95552.09;30001;982;1863;-55
2021/11/01 01:18:54;;;;;;;;;;;;;;;14.50;72.58;95546.62;30001;982;1876;-55
2021/11/01 01:19:32;;;;;;;;;;;;;;;14.54;72.17;95555.72;30001;982;1880;-59
2021/11/01 01:20:07;;;;;;;;;;;;;;;14.61;72.40;95558.59;30001;982;1880;-56
2021/11/01 01:20:38;;;;;;;;;;;;;;;14.63;71.95;95553.59;30001;982;1880;-57
2021/11/01 01:22:19;;;;;;;;;;;;;;;14.58;71.62;95553.84;30001;983;1880;-56
2021/11/01 01:22:49;;;;;;;;;;;;;;;14.54;72.37;95547.53;30001;983;1880;-55
2021/11/01 01:23:21;;;;;;;;;;;;;;;14.51;72.24;95553.69;30001;983;1862;-56
2021/11/01 01:23:52;;;;;;;;;;;;;;;14.48;72.81;95548.91;30001;983;1875;-56
2021/11/01 01:24:23;;;;;;;;;;;;;;;14.46;72.49;95548.47;30001;983;1880;-57
2021/11/01 01:24:54;;;;;;;;;;;;;;;14.49;72.36;95545.06;30001;983;1880;-56
2021/11/01 01:25:36;;;;;;;;;;;;;;;14.51;72.19;95542.75;30001;982;1880;-55
2021/11/01 01:26:07;;;;;;;;;;;;;;;14.52;72.41;95543.56;30001;982;1881;-56
2021/11/01 01:26:38;;;;;;;;;;;;;;;14.48;72.12;95543.47;30001;982;1880;-55
2021/11/01 01:27:10;;;;;;;;;;;;;;;14.52;72.39;95538.91;30001;962;1783;-60
2021/11/01 01:27:42;;;;;;;;;;;;;;;14.53;72.80;95545.94;30001;982;1875;-56
2021/11/01 01:28:14;;;;;;;;;;;;;;;14.50;72.29;95543.91;30001;982;1880;-56
2021/11/01 01:28:45;;;;;;;;;;;;;;;14.47;72.22;95547.34;30001;983;1880;-54
2021/11/01 01:29:16;;;;;;;;;;;;;;;14.46;72.62;95540.28;30001;983;1880;-55
2021/11/01 01:29:47;;;;;;;;;;;;;;;14.46;72.47;95548.47;30001;983;1880;-56
2021/11/01 01:30:18;;;;;;;;;;;;;;;14.45;72.58;95546.88;30001;983;1880;-57
2021/11/01 01:30:50;;;;;;;;;;;;;;;14.45;73.06;95546.88;30001;983;1880;-58
2021/11/01 01:31:21;;;;;;;;;;;;;;;14.53;73.01;95545.16;30001;983;1880;-62
2021/11/01 01:31:52;;;;;;;;;;;;;;;14.60;72.80;95546.09;30001;983;1880;-56
2021/11/01 01:32:23;;;;;;;;;;;;;;;14.62;72.72;95549.28;30001;966;1887;-55
2021/11/01 01:32:53;;;;;;;;;;;;;;;14.60;72.57;95546.09;30001;982;1875;-54
2021/11/01 01:33:24;;;;;;;;;;;;;;;14.58;72.73;95553.84;30001;982;1880;-57
2021/11/01 01:33:55;;;;;;;;;;;;;;;14.56;73.06;95545.22;30001;982;1880;-56
2021/11/01 01:34:26;;;;;;;;;;;;;;;14.51;72.94;95548.22;30001;982;1880;-56
2021/11/01 01:34:57;;;;;;;;;;;;;;;14.46;73.50;95544.94;30001;982;1880;-56
2021/11/01 01:35:28;;;;;;;;;;;;;;;14.45;73.68;95546.09;30001;982;1880;-56
2021/11/01 01:35:58;;;;;;;;;;;;;;;14.45;73.40;95555.06;30001;982;1880;-57
2021/11/01 01:36:30;;;;;;;;;;;;;;;14.48;73.52;95543.47;30001;983;1880;-58
2021/11/01 01:37:01;;;;;;;;;;;;;;;14.55;73.60;95553.78;30001;983;1880;-56
2021/11/01 01:37:32;;;;;;;;;;;;;;;14.57;73.33;95557.72;30001;983;1862;-55
2021/11/01 01:38:03;;;;;;;;;;;;;;;14.59;73.53;95558.16;30001;983;1875;-56
2021/11/01 01:38:35;;;;;;;;;;;;;;;14.53;73.36;95551.41;30001;983;1880;-56
2021/11/01 01:39:06;;;;;;;;;;;;;;;14.49;73.40;95555.97;30001;983;1880;-55
2021/11/01 01:39:36;;;;;;;;;;;;;;;14.44;73.35;95553.50;30001;983;1880;-55
2021/11/01 01:40:08;;;;;;;;;;;;;;;14.40;73.06;95563.47;30001;983;1880;-59
2021/11/01 01:40:39;;;;;;;;;;;;;;;14.39;73.89;95556.44;30001;985;1863;-56
2021/11/01 01:41:14;;;;;;;;;;;;;;;14.39;73.80;95559.16;30001;982;1858;-56
2021/11/01 01:41:46;;;;;;;;;;;;;;;14.40;74.16;95568.94;30001;982;1880;-56
2021/11/01 01:42:17;;;;;;;;;;;;;;;14.39;74.37;95561.91;30001;982;1863;-56
2021/11/01 01:42:51;;;;;;;;;;;;;;;14.36;73.82;95563.38;30001;982;1876;-56
2021/11/01 01:43:23;;;;;;;;;;;;;;;14.33;73.76;95564.09;30001;982;1880;-56
2021/11/01 01:43:55;;;;;;;;;;;;;;;14.30;74.12;95572.16;30001;983;1880;-57
2021/11/01 01:44:26;;;;;;;;;;;;;;;14.28;74.00;95571.72;30001;983;1880;-56
2021/11/01 01:44:57;;;;;;;;;;;;;;;14.25;74.59;95572.41;30001;983;1880;-56
2021/11/01 01:45:28;;;;;;;;;;;;;;;14.22;74.02;95575.84;30001;983;1880;-56
2021/11/01 01:45:58;;;;;;;;;;;;;;;14.20;74.30;95575.41;30001;983;1880;-56
2021/11/01 01:46:29;;;;;;;;;;;;;;;14.18;74.56;95577.69;30001;983;1795;-56
2021/11/01 01:47:01;;;;;;;;;;;;;;;14.14;75.75;95576.81;30001;983;1862;-58
2021/11/01 01:47:32;;;;;;;;;;;;;;;14.09;75.40;95573.19;30001;983;1876;-56
2021/11/01 01:48:03;;;;;;;;;;;;;;;14.11;75.06;95574.75;30001;982;1880;-56
2021/11/01 01:48:34;;;;;;;;;;;;;;;14.09;75.14;95570.44;30001;982;1880;-59
2021/11/01 01:49:05;;;;;;;;;;;;;;;14.08;74.91;95568.88;30001;982;1880;-57
2021/11/01 01:49:36;;;;;;;;;;;;;;;14.07;75.01;95583.62;30001;982;1880;-61
2021/11/01 01:50:07;;;;;;;;;;;;;;;14.09;75.22;95581.34;30001;982;1880;-56
2021/11/01 01:50:38;;;;;;;;;;;;;;;14.09;75.36;95575.09;30001;983;1879;-56
2021/11/01 01:51:10;;;;;;;;;;;;;;;14.12;75.30;95587.25;30001;983;1879;-54
2021/11/01 01:51:40;;;;;;;;;;;;;;;14.15;75.29;95586.56;30001;983;1880;-57
2021/11/01 01:52:12;;;;;;;;;;;;;;;14.15;75.35;95586.56;30001;974;1879;-57
2021/11/01 01:52:48;;;;;;;;;;;;;;;14.15;75.01;95594.75;30001;983;1843;-56
2021/11/01 01:53:20;;;;;;;;;;;;;;;14.13;75.28;95586.91;30001;983;1880;-56
2021/11/01 01:53:52;;;;;;;;;;;;;;;14.11;75.15;95585.69;30001;983;1880;-57
2021/11/01 01:54:22;;;;;;;;;;;;;;;14.08;75.72;95587.16;30001;983;1880;-57
2021/11/01 01:54:53;;;;;;;;;;;;;;;14.07;75.43;95593.75;30001;983;1880;-59
2021/11/01 01:55:24;;;;;;;;;;;;;;;14.12;75.89;95596.25;30001;983;1880;-57
2021/11/01 01:55:55;;;;;;;;;;;;;;;14.12;75.38;95587.25;30001;982;1880;-58
2021/11/01 01:56:26;;;;;;;;;;;;;;;14.14;75.74;95593.16;30001;982;1880;-57
2021/11/01 01:56:58;;;;;;;;;;;;;;;14.13;75.65;95591.56;30001;982;1880;-56
2021/11/01 01:57:30;;;;;;;;;;;;;;;14.12;75.69;95590.78;30001;982;1863;-56
2021/11/01 01:58:01;;;;;;;;;;;;;;;14.13;75.67;95592.38;30001;983;1875;-56
2021/11/01 01:58:56;;;;;;;;;;;;;;;14.09;75.53;95592.28;30001;983;1879;-56
2021/11/01 01:59:29;;;;;;;;;;;;;;;14.03;75.60;95596.37;30001;983;1875;-57
2021/11/01 02:00:00;;;;;;;;;;;;;;;14.01;75.78;95601.38;30001;983;1880;-57
2021/11/01 02:01:06;;;;;;;;;;;;;;;14.00;75.51;95599.00;30001;983;1880;-58
2021/11/01 02:01:37;;;;;;;;;;;;;;;14.08;75.96;95598.88;30001;983;1862;-58
2021/11/01 02:02:08;;;;;;;;;;;;;;;14.13;74.98;95597.03;30001;983;1876;-58
2021/11/01 02:02:40;;;;;;;;;;;;;;;14.10;74.78;95593.06;30001;983;1880;-56
2021/11/01 02:03:12;;;;;;;;;;;;;;;14.08;74.49;95596.13;30001;982;1880;-58
2021/11/01 02:03:52;;;;;;;;;;;;;;;14.05;74.69;95602.28;30001;982;1880;-57
2021/11/01 02:04:25;;;;;;;;;;;;;;;14.00;74.57;95607.19;30001;982;1880;-56
2021/11/01 02:04:56;;;;;;;;;;;;;;;13.97;74.62;95595.03;30001;982;1880;-58
2021/11/01 02:05:32;;;;;;;;;;;;;;;13.94;74.73;95606.62;30001;982;1863;-58
2021/11/01 02:06:07;;;;;;;;;;;;;;;13.88;74.54;95602.53;30001;983;1858;-57
2021/11/01 02:07:13;;;;;;;;;;;;;;;13.83;74.47;95602.00;30001;983;1880;-57
2021/11/01 02:07:49;;;;;;;;;;;;;;;13.78;75.08;95613.16;30001;983;1880;-56
2021/11/01 02:08:20;;;;;;;;;;;;;;;13.71;75.11;95609.06;30001;983;1880;-57
2021/11/01 02:09:04;;;;;;;;;;;;;;;13.69;75.26;95616.00;30001;983;1880;-60
2021/11/01 02:09:49;;;;;;;;;;;;;;;13.63;74.87;95617.38;30001;969;1882;-54
2021/11/01 02:10:25;;;;;;;;;;;;;;;13.61;75.00;95611.47;30001;983;1876;-57
2021/11/01 02:11:13;;;;;;;;;;;;;;;13.56;74.79;95601.59;30001;982;1880;-57
2021/11/01 02:11:48;;;;;;;;;;;;;;;13.48;74.29;95609.91;30001;982;1880;-56
2021/11/01 02:12:23;;;;;;;;;;;;;;;13.43;74.59;95612.88;30001;982;1880;-61
2021/11/01 02:12:58;;;;;;;;;;;;;;;13.35;74.50;95618.09;30001;982;1880;-58
2021/11/01 02:13:33;;;;;;;;;;;;;;;13.33;74.52;95611.37;30001;983;1880;-60
2021/11/01 02:14:07;;;;;;;;;;;;;;;13.31;74.14;95617.16;30001;983;1880;-56
2021/11/01 02:14:41;;;;;;;;;;;;;;;13.25;74.30;95613.09;30001;983;1862;-58
2021/11/01 02:15:15;;;;;;;;;;;;;;;13.21;74.64;95616.81;30001;983;1858;-58
2021/11/01 02:15:49;;;;;;;;;;;;;;;13.16;74.62;95617.87;30001;983;1880;-57
2021/11/01 02:16:20;;;;;;;;;;;;;;;13.13;74.45;95615.78;30001;983;1880;-56
2021/11/01 02:16:52;;;;;;;;;;;;;;;13.05;74.54;95620.22;30001;983;1880;-57
2021/11/01 02:17:28;;;;;;;;;;;;;;;13.00;74.75;95606.00;30001;983;1880;-57
2021/11/01 02:17:59;;;;;;;;;;;;;;;12.96;75.16;95616.00;30001;983;1880;-56
2021/11/01 02:18:32;;;;;;;;;;;;;;;12.92;74.89;95615.06;30001;982;1880;-61
2021/11/01 02:19:08;;;;;;;;;;;;;;;12.92;74.43;95609.63;30001;982;1880;-57
2021/11/01 02:19:48;;;;;;;;;;;;;;;12.87;74.64;95623.47;30001;982;1880;-57
2021/11/01 02:20:26;;;;;;;;;;;;;;;12.82;74.08;95618.25;30001;982;1863;-57
2021/11/01 02:21:20;;;;;;;;;;;;;;;12.77;74.61;95618.47;30001;983;1858;-57
2021/11/01 02:21:58;;;;;;;;;;;;;;;12.74;73.69;95619.94;30001;983;1875;-57
2021/11/01 02:22:49;;;;;;;;;;;;;;;12.60;72.47;95617.50;30001;983;1880;-55
2021/11/01 02:23:38;;;;;;;;;;;;;;;12.50;73.88;95620.66;30001;983;1875;-55
2021/11/01 02:24:44;;;;;;;;;;;;;;;12.44;74.74;95622.00;30001;983;1871;-56
2021/11/01 02:25:40;;;;;;;;;;;;;;;12.41;74.16;95628.91;30001;982;1858;-57
2021/11/01 02:26:14;;;;;;;;;;;;;;;12.32;73.71;95624.69;30001;982;1871;-56
2021/11/01 02:26:46;;;;;;;;;;;;;;;12.29;74.58;95619.91;30001;982;1880;-57
2021/11/01 02:27:17;;;;;;;;;;;;;;;12.27;74.73;95622.16;30001;982;1880;-57
2021/11/01 02:27:48;;;;;;;;;;;;;;;12.23;74.40;95632.91;30001;982;1880;-57
2021/11/01 02:28:21;;;;;;;;;;;;;;;12.22;74.49;95625.87;30001;983;1880;-56
2021/11/01 02:28:52;;;;;;;;;;;;;;;12.24;74.52;95628.28;30001;983;1880;-56
2021/11/01 02:29:26;;;;;;;;;;;;;;;12.19;74.39;95625.75;30001;983;1880;-56
2021/11/01 02:29:57;;;;;;;;;;;;;;;12.14;75.12;95626.75;30001;983;1880;-56
2021/11/01 02:30:30;;;;;;;;;;;;;;;12.11;75.02;95629.38;30001;983;1862;-56
2021/11/01 02:31:02;;;;;;;;;;;;;;;12.06;75.34;95631.16;30001;983;1875;-56
2021/11/01 02:31:33;;;;;;;;;;;;;;;12.04;76.01;95625.25;30001;983;1880;-56
2021/11/01 02:32:06;;;;;;;;;;;;;;;12.00;76.27;95635.19;30001;983;1862;-56
2021/11/01 02:32:40;;;;;;;;;;;;;;;11.95;76.47;95629.16;30001;982;1875;-56
2021/11/01 02:33:12;;;;;;;;;;;;;;;11.89;77.01;95634.00;30001;982;1880;-56
2021/11/01 02:33:44;;;;;;;;;;;;;;;11.85;76.81;95626.81;30001;982;1880;-59
2021/11/01 02:34:15;;;;;;;;;;;;;;;11.87;76.29;95627.28;30001;982;1880;-56
2021/11/01 02:34:46;;;;;;;;;;;;;;;11.89;76.28;95630.47;30001;982;1880;-56
2021/11/01 02:35:18;;;;;;;;;;;;;;;11.84;76.36;95626.03;30001;982;1880;-57
2021/11/01 02:35:50;;;;;;;;;;;;;;;11.81;76.89;95623.97;30001;983;1880;-57
2021/11/01 02:36:21;;;;;;;;;;;;;;;11.75;77.80;95633.44;30001;983;1880;-56
2021/11/01 02:36:52;;;;;;;;;;;;;;;11.68;78.00;95620.38;30001;983;1880;-56
2021/11/01 02:37:23;;;;;;;;;;;;;;;11.63;78.11;95619.78;30001;983;1862;-57
2021/11/01 02:37:54;;;;;;;;;;;;;;;11.59;78.22;95625.06;30001;983;1875;-57
2021/11/01 02:38:25;;;;;;;;;;;;;;;11.57;78.14;95623.81;30001;983;1880;-56
2021/11/01 02:38:57;;;;;;;;;;;;;;;11.55;78.12;95626.06;30001;983;1880;-57
2021/11/01 02:39:29;;;;;;;;;;;;;;;11.56;78.32;95630.38;30001;983;1880;-56
2021/11/01 02:40:00;;;;;;;;;;;;;;;11.53;78.47;95620.16;30001;982;1880;-56
2021/11/01 02:40:31;;;;;;;;;;;;;;;11.50;78.66;95621.59;30001;982;1880;-56
2021/11/01 02:41:17;;;;;;;;;;;;;;;11.54;77.97;95621.75;30001;982;1880;-56
2021/11/01 02:41:48;;;;;;;;;;;;;;;11.50;77.66;95621.59;30001;982;1880;-56
2021/11/01 02:42:19;;;;;;;;;;;;;;;11.43;78.22;95616.69;30001;982;1880;-56
2021/11/01 02:42:51;;;;;;;;;;;;;;;11.37;78.53;95620.75;30001;982;1863;-57
2021/11/01 02:43:21;;;;;;;;;;;;;;;11.34;78.41;95618.69;30001;983;1875;-56
2021/11/01 02:43:57;;;;;;;;;;;;;;;11.31;79.10;95613.91;30001;983;1880;-58
2021/11/01 02:44:28;;;;;;;;;;;;;;;11.28;78.82;95617.28;30001;983;1880;-57
2021/11/01 02:45:01;;;;;;;;;;;;;;;11.26;78.99;95627.66;30001;983;1880;-56
2021/11/01 02:45:33;;;;;;;;;;;;;;;11.22;79.25;95615.88;30001;972;1882;-57
2021/11/01 02:46:04;;;;;;;;;;;;;;;11.18;79.58;95620.34;30001;983;1875;-57
2021/11/01 02:46:36;;;;;;;;;;;;;;;11.16;79.26;95628.03;30001;983;1880;-56
2021/11/01 02:47:07;;;;;;;;;;;;;;;11.20;79.56;95625.44;30001;983;1880;-57
2021/11/01 02:47:38;;;;;;;;;;;;;;;11.22;79.19;95626.72;30001;982;1880;-56
2021/11/01 02:48:09;;;;;;;;;;;;;;;11.22;79.08;95632.16;30001;982;1880;-59
2021/11/01 02:48:44;;;;;;;;;;;;;;;11.24;78.75;95635.34;30001;982;1880;-58
2021/11/01 02:49:14;;;;;;;;;;;;;;;11.30;78.55;95628.59;30001;982;1881;-56
2021/11/01 02:49:45;;;;;;;;;;;;;;;11.33;77.88;95638.81;30001;982;1863;-56
2021/11/01 02:50:18;;;;;;;;;;;;;;;11.31;77.90;95635.63;30001;983;1875;-57
2021/11/01 02:50:50;;;;;;;;;;;;;;;11.28;78.26;95630.84;30001;983;1862;-56
2021/11/01 02:51:22;;;;;;;;;;;;;;;11.24;78.24;95640.78;30001;983;1875;-55
2021/11/01 02:51:53;;;;;;;;;;;;;;;11.27;77.96;95637.41;30001;983;1880;-60
2021/11/01 02:52:24;;;;;;;;;;;;;;;11.29;77.58;95637.06;30001;983;1880;-57
2021/11/01 02:52:55;;;;;;;;;;;;;;;11.25;77.84;95630.69;30001;983;1880;-56
2021/11/01 02:53:26;;;;;;;;;;;;;;;11.20;78.14;95628.97;30001;983;1880;-56
2021/11/01 02:53:58;;;;;;;;;;;;;;;11.14;78.29;95630.28;30001;983;1880;-56
2021/11/01 02:54:30;;;;;;;;;;;;;;;11.09;78.18;95623.09;30001;983;1880;-56
2021/11/01 02:55:02;;;;;;;;;;;;;;;11.10;78.39;95623.91;30001;983;1880;-59
2021/11/01 02:55:34;;;;;;;;;;;;;;;11.14;77.88;95619.41;30001;982;1880;-63
2021/11/01 02:56:08;;;;;;;;;;;;;;;11.14;77.38;95613.97;30001;982;1863;-56